Terminal Aerodrome Forecast
Issued by NWS

Home | Current Version | Previous Version | Text Only | Print | Product List | Glossary On
Versions: 1 2 3 4 5 6 7 8 9 10 11 12 13 14 15 16
000
FTAK31 PAFA 240547
TAFAOM
TAF
PAOM 240547Z 2406/2506 34012KT P6SM BKN150
     FM240900 35012KT P6SM VCSH SCT060 BKN090 BKN150
     FM241600 01010KT P6SM SCT040 BKN080 BKN150 PROB30 2416/2422 2SM
      -SHSN BKN030=

USA.gov is the U.S. government's official web portal to all federal, state and local government web resources and services.